地図

経路データ

SID SEASON NUMBER BASIN SUBBASIN NAME ISO_TIME NATURE LAT LON WMO_WIND WMO_PRES WMO_AGENCY TRACK_TYPE DIST2LAND LANDFALL IFLAG USA_AGENCY USA_ATCF_ID USA_LAT USA_LON USA_RECORD USA_STATUS USA_WIND USA_PRES USA_SSHS USA_R34_NE USA_R34_SE USA_R34_SW USA_R34_NW USA_R50_NE USA_R50_SE USA_R50_SW USA_R50_NW USA_R64_NE USA_R64_SE USA_R64_SW USA_R64_NW USA_POCI USA_ROCI USA_RMW USA_EYE TOKYO_LAT TOKYO_LON TOKYO_GRADE TOKYO_WIND TOKYO_PRES TOKYO_R50_DIR TOKYO_R50_LONG TOKYO_R50_SHORT TOKYO_R30_DIR TOKYO_R30_LONG TOKYO_R30_SHORT TOKYO_LAND CMA_LAT CMA_LON CMA_CAT CMA_WIND CMA_PRES HKO_LAT HKO_LON HKO_CAT HKO_WIND HKO_PRES NEWDELHI_LAT NEWDELHI_LON NEWDELHI_GRADE NEWDELHI_WIND NEWDELHI_PRES NEWDELHI_CI NEWDELHI_DP NEWDELHI_POCI REUNION_LAT REUNION_LON REUNION_TYPE REUNION_WIND REUNION_PRES REUNION_TNUM REUNION_CI REUNION_RMW REUNION_R34_NE REUNION_R34_SE REUNION_R34_SW REUNION_R34_NW REUNION_R50_NE REUNION_R50_SE REUNION_R50_SW REUNION_R50_NW REUNION_R64_NE REUNION_R64_SE REUNION_R64_SW REUNION_R64_NW BOM_LAT BOM_LON BOM_TYPE BOM_WIND BOM_PRES BOM_TNUM BOM_CI BOM_RMW BOM_R34_NE BOM_R34_SE BOM_R34_SW BOM_R34_NW BOM_R50_NE BOM_R50_SE BOM_R50_SW BOM_R50_NW BOM_R64_NE BOM_R64_SE BOM_R64_SW BOM_R64_NW BOM_ROCI BOM_POCI BOM_EYE BOM_POS_METHOD BOM_PRES_METHOD NADI_LAT NADI_LON NADI_CAT NADI_WIND NADI_PRES WELLINGTON_LAT WELLINGTON_LON WELLINGTON_WIND WELLINGTON_PRES DS824_LAT DS824_LON DS824_STAGE DS824_WIND DS824_PRES TD9636_LAT TD9636_LON TD9636_STAGE TD9636_WIND TD9636_PRES TD9635_LAT TD9635_LON TD9635_WIND TD9635_PRES TD9635_ROCI NEUMANN_LAT NEUMANN_LON NEUMANN_CLASS NEUMANN_WIND NEUMANN_PRES MLC_LAT MLC_LON MLC_CLASS MLC_WIND MLC_PRES USA_GUST BOM_GUST BOM_GUST_PER REUNION_GUST REUNION_GUST_PER USA_SEAHGT USA_SEARAD_NE USA_SEARAD_SE USA_SEARAD_SW USA_SEARAD_NW STORM_SPEED STORM_DIR
1885192N07135 1885 27 WP MM NOT_NAMED 1885-07-10 16:00:00 NR 7.30000 134.900 main 872 862 __________O___ -1 7.30000 134.900 7 7 308
1885192N07135 1885 27 WP MM NOT_NAMED 1885-07-10 18:00:00 NR 7.44861 134.710 main 862 859 __________P___ -1 7.44861 134.710 7 7 308
1885192N07135 1885 27 WP MM NOT_NAMED 1885-07-10 21:00:00 NR 7.66571 134.433 main 859 838 __________P___ -1 7.66571 134.433 7 7 309
1885192N07135 1885 27 WP MM NOT_NAMED 1885-07-11 00:00:00 NR 7.86809 134.179 main 838 816 __________P___ -1 7.86809 134.179 7 6 309
1885192N07135 1885 27 WP MM NOT_NAMED 1885-07-11 03:00:00 NR 8.04705 133.962 main 816 806 __________P___ -1 8.04705 133.962 7 5 310
1885192N07135 1885 27 WP MM NOT_NAMED 1885-07-11 04:00:00 NR 8.10000 133.900 main 806 794 __________O___ -1 8.10000 133.900 7 4 311
1885192N07135 1885 27 WP MM NOT_NAMED 1885-07-11 06:00:00 NR 8.19513 133.793 main 795 784 __________P___ -1 8.19513 133.793 7 4 313
1885192N07135 1885 27 WP MM NOT_NAMED 1885-07-11 09:00:00 NR 8.31886 133.665 main 785 774 __________P___ -1 8.31886 133.665 7 3 316
1885192N07135 1885 27 WP MM NOT_NAMED 1885-07-11 12:00:00 NR 8.43371 133.555 main 775 754 __________P___ -1 8.43371 133.555 7 3 317
1885192N07135 1885 27 WP MM NOT_NAMED 1885-07-11 15:00:00 NR 8.55528 133.442 main 755 755 __________P___ -1 8.55528 133.442 7 3 317
1885192N07135 1885 27 WP MM NOT_NAMED 1885-07-11 16:00:00 NR 8.60000 133.400 main 755 746 __________O___ -1 8.60000 133.400 7 4 316
1885192N07135 1885 27 WP MM NOT_NAMED 1885-07-11 18:00:00 NR 8.70525 133.295 main 746 728 __________P___ -1 8.70525 133.295 7 5 315
1885192N07135 1885 27 WP MM NOT_NAMED 1885-07-11 21:00:00 NR 8.87574 133.124 main 728 711 __________P___ -1 8.87574 133.124 7 5 315
1885192N07135 1885 27 WP MM NOT_NAMED 1885-07-12 00:00:00 NR 9.05581 132.944 main 711 702 __________P___ -1 9.05581 132.944 7 5 315
1885192N07135 1885 27 WP MM NOT_NAMED 1885-07-12 03:00:00 NR 9.23920 132.761 main 702 694 __________P___ -1 9.23920 132.761 7 5 315
1885192N07135 1885 27 WP MM NOT_NAMED 1885-07-12 04:00:00 NR 9.30000 132.700 main 694 687 __________O___ -1 9.30000 132.700 7 5 315
1885192N07135 1885 27 WP MM NOT_NAMED 1885-07-12 06:00:00 NR 9.41666 132.581 main 687 672 __________P___ -1 9.41666 132.581 7 5 315
1885192N07135 1885 27 WP MM NOT_NAMED 1885-07-12 09:00:00 NR 9.59165 132.402 main 672 655 __________P___ -1 9.59165 132.402 7 5 315
1885192N07135 1885 27 WP MM NOT_NAMED 1885-07-12 12:00:00 NR 9.76666 132.225 main 657 646 __________P___ -1 9.76666 132.225 7 5 316
1885192N07135 1885 27 WP MM NOT_NAMED 1885-07-12 15:00:00 NR 9.94166 132.055 main 648 640 __________P___ -1 9.94166 132.055 7 5 317
1885192N07135 1885 27 WP MM NOT_NAMED 1885-07-12 16:00:00 NR 10.0000 132.000 main 640 631 __________O___ -1 10.0000 132.000 7 5 319
1885192N07135 1885 27 WP MM NOT_NAMED 1885-07-12 18:00:00 NR 10.1114 131.905 main 631 623 __________P___ -1 10.1114 131.905 7 4 321
1885192N07135 1885 27 WP MM NOT_NAMED 1885-07-12 21:00:00 NR 10.2783 131.768 main 626 607 __________P___ -1 10.2783 131.768 7 4 321
1885192N07135 1885 27 WP MM NOT_NAMED 1885-07-13 00:00:00 NR 10.4507 131.626 main 609 599 __________P___ -1 10.4507 131.626 7 5 320
1885192N07135 1885 27 WP MM NOT_NAMED 1885-07-13 03:00:00 NR 10.6349 131.462 main 601 594 __________P___ -1 10.6349 131.462 7 5 318
1885192N07135 1885 27 WP MM NOT_NAMED 1885-07-13 04:00:00 NR 10.7000 131.400 main 594 586 __________O___ -1 10.7000 131.400 7 6 315
1885192N07135 1885 27 WP MM NOT_NAMED 1885-07-13 06:00:00 NR 10.8360 131.256 main 586 563 __________P___ -1 10.8360 131.256 7 6 313
1885192N07135 1885 27 WP MM NOT_NAMED 1885-07-13 09:00:00 NR 11.0525 131.015 main 567 546 __________P___ -1 11.0525 131.015 7 7 312
1885192N07135 1885 27 WP MM NOT_NAMED 1885-07-13 12:00:00 NR 11.2813 130.755 main 546 515 __________P___ -1 11.2813 130.755 7 7 312
1885192N07135 1885 27 WP MM NOT_NAMED 1885-07-13 15:00:00 NR 11.5192 130.488 main 515 506 __________P___ -1 11.5192 130.488 7 7 313
1885192N07135 1885 27 WP MM NOT_NAMED 1885-07-13 16:00:00 NR 11.6000 130.400 main 506 486 __________O___ -1 11.6000 130.400 7 7 313
1885192N07135 1885 27 WP MM NOT_NAMED 1885-07-13 18:00:00 NR 11.7583 130.231 main 488 469 __________P___ -1 11.7583 130.231 7 7 314
1885192N07135 1885 27 WP MM NOT_NAMED 1885-07-13 21:00:00 NR 12.0020 129.977 main 471 445 __________P___ -1 12.0020 129.977 7 7 315
1885192N07135 1885 27 WP MM NOT_NAMED 1885-07-14 00:00:00 NR 12.2533 129.725 main 449 432 __________P___ -1 12.2533 129.725 7 7 316
1885192N07135 1885 27 WP MM NOT_NAMED 1885-07-14 03:00:00 NR 12.5121 129.480 main 436 426 __________P___ -1 12.5121 129.480 7 7 318
1885192N07135 1885 27 WP MM NOT_NAMED 1885-07-14 04:00:00 NR 12.6000 129.400 main 426 407 __________O___ -1 12.6000 129.400 7 7 319
1885192N07135 1885 27 WP MM NOT_NAMED 1885-07-14 06:00:00 NR 12.7776 129.242 main 407 390 __________P___ -1 12.7776 129.242 7 7 320
1885192N07135 1885 27 WP MM NOT_NAMED 1885-07-14 09:00:00 NR 13.0503 129.010 main 393 378 __________P___ -1 13.0503 129.010 7 7 321
1885192N07135 1885 27 WP MM NOT_NAMED 1885-07-14 12:00:00 NR 13.3278 128.787 main 378 366 __________P___ -1 13.3278 128.787 7 7 322
1885192N07135 1885 27 WP MM NOT_NAMED 1885-07-14 15:00:00 NR 13.6071 128.570 main 370 361 __________P___ -1 13.6071 128.570 7 7 323
1885192N07135 1885 27 WP MM NOT_NAMED 1885-07-14 16:00:00 NR 13.7000 128.500 main 366 361 __________O___ -1 13.7000 128.500 7 7 323
1885192N07135 1885 27 WP MM NOT_NAMED 1885-07-14 18:00:00 NR 13.8701 128.369 main 367 355 __________P___ -1 13.8701 128.369 7 6 324
1885192N07135 1885 27 WP MM NOT_NAMED 1885-07-14 21:00:00 NR 14.1250 128.178 main 361 358 __________P___ -1 14.1250 128.178 7 6 325
1885192N07135 1885 27 WP MM NOT_NAMED 1885-07-15 00:00:00 NR 14.3936 127.984 main 365 365 __________P___ -1 14.3936 127.984 7 7 325
1885192N07135 1885 27 WP MM NOT_NAMED 1885-07-15 03:00:00 NR 14.6915 127.775 main 373 365 __________P___ -1 14.6915 127.775 7 7 326
1885192N07135 1885 27 WP MM NOT_NAMED 1885-07-15 04:00:00 NR 14.8000 127.700 main 369 355 __________O___ -1 14.8000 127.700 7 8 326
1885192N07135 1885 27 WP MM NOT_NAMED 1885-07-15 06:00:00 NR 15.0382 127.531 main 355 349 __________P___ -1 15.0382 127.531 7 9 326
1885192N07135 1885 27 WP MM NOT_NAMED 1885-07-15 09:00:00 NR 15.4269 127.259 main 354 344 __________P___ -1 15.4269 127.259 7 10 326
1885192N07135 1885 27 WP MM NOT_NAMED 1885-07-15 12:00:00 NR 15.8396 126.975 main 351 348 __________P___ -1 15.8396 126.975 7 10 327
1885192N07135 1885 27 WP MM NOT_NAMED 1885-07-15 15:00:00 NR 16.2605 126.692 main 364 356 __________P___ -1 16.2605 126.692 7 10 327
1885192N07135 1885 27 WP MM NOT_NAMED 1885-07-15 16:00:00 NR 16.4000 126.600 main 364 364 __________O___ -1 16.4000 126.600 7 10 328
1885192N07135 1885 27 WP MM NOT_NAMED 1885-07-15 18:00:00 NR 16.6718 126.425 main 376 376 __________P___ -1 16.6718 126.425 7 10 329
1885192N07135 1885 27 WP MM NOT_NAMED 1885-07-15 21:00:00 NR 17.0798 126.168 main 393 363 __________P___ -1 17.0798 126.168 7 9 329
1885192N07135 1885 27 WP MM NOT_NAMED 1885-07-16 00:00:00 NR 17.4824 125.920 main 365 351 __________P___ -1 17.4824 125.920 7 9 330
1885192N07135 1885 27 WP MM NOT_NAMED 1885-07-16 03:00:00 NR 17.8733 125.679 main 354 343 __________P___ -1 17.8733 125.679 7 9 330
1885192N07135 1885 27 WP MM NOT_NAMED 1885-07-16 04:00:00 NR 18.0000 125.600 main 347 327 __________O___ -1 18.0000 125.600 7 8 327
1885192N07135 1885 27 WP MM NOT_NAMED 1885-07-16 06:00:00 NR 18.2289 125.441 main 327 306 __________P___ -1 18.2289 125.441 7 8 326
1885192N07135 1885 27 WP MM NOT_NAMED 1885-07-16 09:00:00 NR 18.5595 125.210 main 306 288 __________P___ -1 18.5595 125.210 7 8 327
1885192N07135 1885 27 WP MM NOT_NAMED 1885-07-16 12:00:00 NR 18.8967 124.986 main 289 274 __________P___ -1 18.8967 124.986 7 8 330
1885192N07135 1885 27 WP MM NOT_NAMED 1885-07-16 15:00:00 NR 19.2657 124.770 main 281 271 __________P___ -1 19.2657 124.770 7 9 332
1885192N07135 1885 27 WP MM NOT_NAMED 1885-07-16 16:00:00 NR 19.4000 124.700 main 276 271 __________O___ -1 19.4000 124.700 7 10 336
1885192N07135 1885 27 WP MM NOT_NAMED 1885-07-16 18:00:00 NR 19.7200 124.556 main 282 273 __________P___ -1 19.7200 124.556 7 11 338
1885192N07135 1885 27 WP MM NOT_NAMED 1885-07-16 21:00:00 NR 20.2384 124.346 main 290 298 __________P___ -1 20.2384 124.346 7 11 340
1885192N07135 1885 27 WP MM NOT_NAMED 1885-07-17 00:00:00 NR 20.7639 124.146 main 328 327 __________P___ -1 20.7639 124.146 7 11 340
1885192N07135 1885 27 WP MM NOT_NAMED 1885-07-17 03:00:00 NR 21.2528 123.959 main 327 314 __________P___ -1 21.2528 123.959 7 10 340
1885192N07135 1885 27 WP MM NOT_NAMED 1885-07-17 04:00:00 NR 21.4000 123.900 main 314 298 __________O___ -1 21.4000 123.900 3 8 338
1885192N07135 1885 27 WP MM NOT_NAMED 1885-07-17 06:00:00 NR 21.6403 123.793 main 298 257 __________P___ -1 21.6403 123.793 3 7 337
1885192N07135 1885 27 WP MM NOT_NAMED 1885-07-17 09:00:00 NR 21.9502 123.646 main 257 237 __________P___ -1 21.9502 123.646 3 6 335
1885192N07135 1885 27 WP MM NOT_NAMED 1885-07-17 12:00:00 NR 22.2274 123.504 main 237 215 __________P___ -1 22.2274 123.504 3 6 334
1885192N07135 1885 27 WP MM NOT_NAMED 1885-07-17 15:00:00 NR 22.5031 123.354 main 215 202 __________P___ -1 22.5031 123.354 3 6 333
1885192N07135 1885 27 WP MM NOT_NAMED 1885-07-17 16:00:00 NR 22.6000 123.300 main 202 187 __________O___ -1 22.6000 123.300 4 7 332
1885192N07135 1885 27 WP MM NOT_NAMED 1885-07-17 18:00:00 NR 22.8062 123.180 main 187 163 __________P___ -1 22.8062 123.180 4 7 331
1885192N07135 1885 27 WP MM NOT_NAMED 1885-07-17 21:00:00 NR 23.1277 122.989 main 163 134 __________P___ -1 23.1277 122.989 4 8 331
1885192N07135 1885 27 WP MM NOT_NAMED 1885-07-18 00:00:00 NR 23.4750 122.785 main 134 97 __________P___ -1 23.4750 122.785 4 8 333
1885192N07135 1885 27 WP MM NOT_NAMED 1885-07-18 03:00:00 NR 23.8607 122.572 main 97 82 __________P___ -1 23.8607 122.572 4 9 334
1885192N07135 1885 27 WP MM NOT_NAMED 1885-07-18 04:00:00 NR 24.0000 122.500 main 82 55 __________O___ -1 24.0000 122.500 4 9 336
1885192N07135 1885 27 WP MM NOT_NAMED 1885-07-18 06:00:00 NR 24.2859 122.363 main 55 30 __________P___ -1 24.2859 122.363 4 10 337
1885192N07135 1885 27 WP MM NOT_NAMED 1885-07-18 09:00:00 NR 24.7523 122.152 main 30 0 __________P___ -1 24.7523 122.152 4 11 338
1885192N07135 1885 27 WP MM NOT_NAMED 1885-07-18 12:00:00 NR 25.2611 121.928 main 30 30 __________P___ -1 25.2611 121.928 4 11 338
1885192N07135 1885 27 WP MM NOT_NAMED 1885-07-18 15:00:00 NR 25.8091 121.686 main 67 67 __________P___ -1 25.8091 121.686 4 12 338
1885192N07135 1885 27 WP MM NOT_NAMED 1885-07-18 16:00:00 NR 26.0000 121.600 main 89 89 __________O___ -1 26.0000 121.600 4 13 338
1885192N07135 1885 27 WP MM NOT_NAMED 1885-07-18 18:00:00 NR 26.3931 121.420 main 126 63 __________P___ -1 26.3931 121.420 4 13 337
1885192N07135 1885 27 WP MM NOT_NAMED 1885-07-18 21:00:00 NR 27.0063 121.131 main 63 9 __________P___ -1 27.0063 121.131 4 14 337
1885192N07135 1885 27 WP MM NOT_NAMED 1885-07-19 00:00:00 NR 27.6397 120.825 main 9 0 __________P___ -1 27.6397 120.825 4 14 337
1885192N07135 1885 27 WP MM NOT_NAMED 1885-07-19 03:00:00 NR 28.2843 120.508 main 0 0 __________P___ -1 28.2843 120.508 4 14 336
1885192N07135 1885 27 WP MM NOT_NAMED 1885-07-19 04:00:00 NR 28.5000 120.400 main 0 __________O___ -1 28.5000 120.400 7 14 335

デジタル台風データ・検索

IBTrACS Databaseについて

本データベースは、米国NOAAが公開する1842年以降の世界の熱帯低気圧のベストトラックデータアーカイブInternational Best Track Archive for Climate Stewardship (IBTrACS)を、ウェブで閲覧しやすい形式に変換したものです。

最終更新日:2021-11-26